Time;durP1;ratioP1;P1;durP2;ratioP2;P2;SDS_P1;SDS_P2;PMS_P1;PMS_P2;Temp;Humidity;BMP_temperature;BMP_pressure;BME280_temperature;BME280_humidity;BME280_pressure;Samples;Min_cycle;Max_cycle;Signal;HPM_P1;HPM_P2
2023/03/02 00:00:56;;;;;;;13.05;8.80;;;;;;;;;;5127506;27;20358;-47
2023/03/02 00:03:22;;;;;;;15.70;9.57;;;;;;;;;;5127425;27;20501;-47
2023/03/02 00:05:48;;;;;;;15.23;9.10;;;;;;;;;;5127707;27;20031;-47
2023/03/02 00:08:15;;;;;;;15.00;9.20;;;;;;;;;;5127685;27;20031;-47
2023/03/02 00:10:41;;;;;;;14.00;9.27;;;;;;;;;;5127253;27;20027;-48
2023/03/02 00:13:07;;;;;;;15.23;9.48;;;;;;;;;;5127403;27;20591;-46
2023/03/02 00:15:34;;;;;;;14.38;9.10;;;;;;;;;;5127447;27;20047;-49
2023/03/02 00:18:01;;;;;;;14.68;8.95;;;;;;;;;;5128218;27;20533;-47
2023/03/02 00:20:27;;;;;;;14.93;9.10;;;;;;;;;;5127274;27;20098;-48
2023/03/02 00:22:54;;;;;;;15.50;8.85;;;;;;;;;;5125787;27;20155;-47
2023/03/02 00:25:20;;;;;;;13.68;8.30;;;;;;;;;;5108287;27;20132;-47
2023/03/02 00:27:46;;;;;;;13.85;8.40;;;;;;;;;;5126985;27;20084;-47
2023/03/02 00:30:14;;;;;;;14.20;8.38;;;;;;;;;;5127264;27;20112;-46
2023/03/02 00:32:40;;;;;;;14.63;8.65;;;;;;;;;;5127515;27;20041;-47
2023/03/02 00:35:07;;;;;;;15.70;8.98;;;;;;;;;;5127925;27;20374;-48
2023/03/02 00:37:34;;;;;;;14.85;9.02;;;;;;;;;;5128286;27;20407;-47
2023/03/02 00:40:00;;;;;;;14.05;8.70;;;;;;;;;;5127446;27;20023;-49
2023/03/02 00:42:26;;;;;;;14.48;8.95;;;;;;;;;;5127470;27;20466;-48
2023/03/02 00:44:53;;;;;;;13.35;8.70;;;;;;;;;;5127267;27;20593;-47
2023/03/02 00:47:19;;;;;;;16.00;9.55;;;;;;;;;;5127479;27;20080;-48
2023/03/02 00:49:47;;;;;;;18.10;10.20;;;;;;;;;;5127054;27;20102;-48
2023/03/02 00:52:15;;;;;;;15.05;9.35;;;;;;;;;;5127495;27;20060;-46
2023/03/02 00:54:42;;;;;;;16.08;10.18;;;;;;;;;;5126993;27;20090;-48
2023/03/02 00:57:08;;;;;;;15.80;10.15;;;;;;;;;;5126936;27;20023;-48
2023/03/02 00:59:36;;;;;;;16.33;10.05;;;;;;;;;;5127084;27;20064;-46
2023/03/02 01:02:02;;;;;;;17.33;10.23;;;;;;;;;;5127344;27;20137;-46
2023/03/02 01:04:33;;;;;;;15.15;8.85;;;;;;;;;;5126825;27;20030;-46
2023/03/02 06:11:18;;;;;;;;;;;;;;;;;;5120393;27;19915;-47
2023/03/02 06:13:44;;;;;;;;;;;;;;;;;;5125407;28;20568;-47
2023/03/02 06:16:10;;;;;;;;;;;;;;;;;;5109476;28;19949;-46
2023/03/02 06:18:36;;;;;;;;;;;;;;;;;;5109028;28;19912;-47
2023/03/02 06:21:02;;;;;;;;;;;;;;;;;;5108848;28;19919;-45
2023/03/02 06:23:28;;;;;;;;;;;;;;;;;;5109041;28;19904;-46
2023/03/02 06:25:54;;;;;;;;;;;;;;;;;;5109172;28;19987;-49
2023/03/02 06:28:20;;;;;;;;;;;;;;;;;;5109034;28;19911;-46
2023/03/02 06:30:47;;;;;;;;;;;;;;;;;;5108069;28;19912;-49
2023/03/02 06:33:13;;;;;;;;;;;;;;;;;;5109043;28;20002;-49
2023/03/02 06:35:39;;;;;;;;;;;;;;;;;;5108766;28;19908;-46
2023/03/02 06:38:05;;;;;;;;;;;;;;;;;;5112148;28;19911;-48
2023/03/02 06:40:31;;;;;;;;;;;;;;;;;;5112996;28;19912;-48
2023/03/02 06:42:59;;;;;;;24.05;14.63;;;;;;;;;;5111958;28;20416;-49
2023/03/02 06:45:26;;;;;;;23.27;14.02;;;;;;;;;;5112201;28;20069;-48
2023/03/02 06:47:52;;;;;;;24.10;14.13;;;;;;;;;;5112532;28;20031;-50
2023/03/02 06:50:18;;;;;;;23.20;13.90;;;;;;;;;;5112084;28;20035;-46
2023/03/02 06:52:44;;;;;;;24.52;13.63;;;;;;;;;;5112103;28;20106;-48
2023/03/02 06:55:10;;;;;;;24.40;13.15;;;;;;;;;;5112134;28;20049;-46
2023/03/02 06:57:37;;;;;;;21.90;12.23;;;;;;;;;;5112110;28;20028;-48
2023/03/02 07:00:23;;;;;;;22.60;13.27;;;;;;;;;;5111579;28;20039;-46
2023/03/02 07:02:49;;;;;;;22.05;12.82;;;;;;;;;;5112186;28;20382;-47
2023/03/02 07:05:15;;;;;;;22.85;13.60;;;;;;;;;;5111388;28;20031;-47
2023/03/02 07:07:41;;;;;;;21.98;13.00;;;;;;;;;;5111571;28;20593;-45
2023/03/02 07:10:08;;;;;;;23.10;13.70;;;;;;;;;;5110252;28;20122;-50
2023/03/02 07:12:34;;;;;;;21.95;13.70;;;;;;;;;;5110932;28;20106;-48
2023/03/02 07:15:00;;;;;;;22.35;12.77;;;;;;;;;;5124686;27;20031;-48
2023/03/02 07:17:26;;;;;;;19.63;12.32;;;;;;;;;;5132030;27;20106;-48
2023/03/02 07:19:52;;;;;;;20.27;12.27;;;;;;;;;;5132508;27;20023;-48
2023/03/02 07:22:18;;;;;;;20.95;12.30;;;;;;;;;;5131350;27;20048;-46
2023/03/02 07:24:44;;;;;;;23.23;12.57;;;;;;;;;;5143526;27;20034;-48
2023/03/02 07:27:10;;;;;;;20.58;12.48;;;;;;;;;;5132225;27;20024;-46
2023/03/02 07:29:36;;;;;;;23.63;13.38;;;;;;;;;;5131346;27;20070;-46
2023/03/02 07:32:02;;;;;;;22.67;13.18;;;;;;;;;;5131627;27;20027;-47
2023/03/02 07:34:28;;;;;;;21.70;12.85;;;;;;;;;;5132037;27;20027;-45
2023/03/02 07:36:55;;;;;;;22.75;13.32;;;;;;;;;;5132031;27;20079;-44
2023/03/02 07:39:21;;;;;;;24.13;13.82;;;;;;;;;;5131711;27;20027;-48
2023/03/02 07:41:47;;;;;;;23.52;13.27;;;;;;;;;;5131596;27;20031;-44
2023/03/02 07:44:13;;;;;;;24.85;13.57;;;;;;;;;;5131898;27;20031;-47
2023/03/02 07:46:39;;;;;;;22.45;13.48;;;;;;;;;;5131870;27;20543;-45
2023/03/02 07:49:05;;;;;;;21.20;12.52;;;;;;;;;;5131195;27;20030;-48
2023/03/02 07:51:31;;;;;;;26.23;14.52;;;;;;;;;;5131283;27;20035;-46
2023/03/02 07:53:57;;;;;;;22.10;12.82;;;;;;;;;;5131415;27;20686;-49
2023/03/02 07:56:23;;;;;;;21.70;13.00;;;;;;;;;;5130766;27;20042;-45
2023/03/02 07:58:49;;;;;;;18.98;12.57;;;;;;;;;;5130672;27;20500;-45
2023/03/02 08:01:15;;;;;;;22.13;13.13;;;;;;;;;;5131267;27;20102;-45
2023/03/02 08:03:41;;;;;;;21.40;13.02;;;;;;;;;;5131679;27;20027;-45
2023/03/02 08:06:09;;;;;;;21.45;12.65;;;;;;;;;;5131354;27;20026;-48
2023/03/02 08:08:35;;;;;;;22.25;12.95;;;;;;;;;;5129948;27;20382;-45
2023/03/02 08:11:06;;;;;;;22.30;13.10;;;;;;;;;;5131446;27;20574;-45
2023/03/02 08:13:32;;;;;;;24.70;13.80;;;;;;;;;;5128216;27;20035;-45
2023/03/02 08:16:01;;;;;;;24.45;14.70;;;;;;;;;;5129914;27;20037;-47
2023/03/02 08:18:28;;;;;;;22.33;13.35;;;;;;;;;;5124369;27;20475;-47
2023/03/02 08:20:54;;;;;;;20.30;12.60;;;;;;;;;;5128921;27;20023;-46
2023/03/02 08:23:20;;;;;;;22.73;13.02;;;;;;;;;;5133000;27;20030;-46
2023/03/02 08:25:46;;;;;;;18.95;11.77;;;;;;;;;;5150493;27;20097;-48
2023/03/02 08:28:12;;;;;;;20.30;12.65;;;;;;;;;;5129686;27;20031;-46
2023/03/02 08:30:39;;;;;;;18.83;11.20;;;;;;;;;;5111757;27;20104;-46
2023/03/02 08:33:06;;;;;;;20.00;11.38;;;;;;;;;;5120340;27;20116;-45
2023/03/02 08:35:32;;;;;;;19.48;12.63;;;;;;;;;;5128547;27;20114;-45
2023/03/02 08:37:58;;;;;;;21.52;13.32;;;;;;;;;;5127103;27;20442;-44
2023/03/02 08:40:25;;;;;;;20.33;12.73;;;;;;;;;;5125286;27;20053;-48
2023/03/02 08:42:56;;;;;;;20.73;12.25;;;;;;;;;;5129900;27;20533;-46
2023/03/02 08:45:25;;;;;;;19.70;12.63;;;;;;;;;;5127993;27;20027;-45
2023/03/02 08:47:54;;;;;;;17.70;11.02;;;;;;;;;;5129200;27;20540;-46
2023/03/02 08:50:21;;;;;;;19.02;11.63;;;;;;;;;;5129630;27;20023;-49
2023/03/02 08:52:47;;;;;;;17.70;10.63;;;;;;;;;;5128442;27;20031;-45
2023/03/02 08:55:13;;;;;;;19.05;11.45;;;;;;;;;;5127947;27;20672;-46
2023/03/02 08:57:40;;;;;;;17.55;10.70;;;;;;;;;;5129169;27;20129;-46
2023/03/02 09:00:08;;;;;;;15.73;9.65;;;;;;;;;;5129011;27;20020;-45
2023/03/02 09:02:34;;;;;;;15.80;10.57;;;;;;;;;;5129102;27;20528;-49
2023/03/02 09:05:00;;;;;;;16.27;9.98;;;;;;;;;;5129264;27;20474;-46
2023/03/02 09:07:26;;;;;;;14.55;9.27;;;;;;;;;;5129526;27;20046;-46
2023/03/02 09:09:52;;;;;;;15.82;9.38;;;;;;;;;;5129737;27;20023;-45
2023/03/02 09:12:18;;;;;;;16.00;9.75;;;;;;;;;;5126914;27;20983;-46
2023/03/02 09:14:44;;;;;;;16.52;9.77;;;;;;;;;;5135636;27;20603;-45
2023/03/02 09:17:11;;;;;;;16.48;9.70;;;;;;;;;;5127968;27;20505;-48
2023/03/02 09:19:40;;;;;;;16.05;9.65;;;;;;;;;;5126192;27;20019;-45
2023/03/02 09:22:07;;;;;;;15.48;9.07;;;;;;;;;;5123891;27;20565;-47
2023/03/02 09:24:35;;;;;;;13.35;8.57;;;;;;;;;;5124687;27;20460;-45
2023/03/02 09:27:01;;;;;;;11.85;8.23;;;;;;;;;;5124829;27;20112;-45
2023/03/02 09:29:27;;;;;;;13.93;8.65;;;;;;;;;;5121565;27;20031;-49
2023/03/02 09:31:53;;;;;;;14.50;8.98;;;;;;;;;;5114325;27;20038;-45
2023/03/02 09:34:19;;;;;;;14.18;9.00;;;;;;;;;;5128019;27;20031;-45
2023/03/02 09:36:46;;;;;;;16.05;9.82;;;;;;;;;;5127560;27;20540;-46
2023/03/02 09:39:12;;;;;;;14.40;9.15;;;;;;;;;;5127462;27;20027;-45
2023/03/02 09:42:00;;;;;;;17.80;10.98;;;;;;;;;;5127357;27;20035;-46
2023/03/02 09:44:29;;;;;;;15.63;10.20;;;;;;;;;;5125058;27;20031;-46
2023/03/02 09:47:03;;;;;;;18.17;11.10;;;;;;;;;;5127703;27;20098;-45
2023/03/02 09:50:01;;;;;;;20.63;12.35;;;;;;;;;;5127042;27;20031;-46
2023/03/02 09:52:27;;;;;;;20.00;11.63;;;;;;;;;;5092449;27;20042;-49
2023/03/02 09:54:54;;;;;;;21.77;12.00;;;;;;;;;;5126513;27;20076;-47
2023/03/02 09:57:22;;;;;;;22.45;13.95;;;;;;;;;;5123615;27;20081;-46
2023/03/02 09:59:51;;;;;;;27.50;13.88;;;;;;;;;;5126728;27;20155;-45
2023/03/02 10:02:32;;;;;;;23.52;14.75;;;;;;;;;;5127200;27;20114;-47
2023/03/02 10:05:01;;;;;;;20.92;12.95;;;;;;;;;;5126046;27;20034;-46
2023/03/02 10:07:29;;;;;;;18.75;11.95;;;;;;;;;;5111030;28;20050;-45
2023/03/02 10:10:14;;;;;;;14.50;9.45;;;;;;;;;;5122574;27;20027;-45
2023/03/02 10:12:43;;;;;;;15.50;9.85;;;;;;;;;;5116775;27;20027;-48
2023/03/02 10:15:14;;;;;;;13.13;8.57;;;;;;;;;;5119839;27;20070;-45
2023/03/02 10:17:51;;;;;;;15.70;9.05;;;;;;;;;;5129247;27;20131;-48
2023/03/02 10:20:24;;;;;;;14.32;9.13;;;;;;;;;;5131466;27;20031;-47
2023/03/02 10:22:52;;;;;;;15.05;9.10;;;;;;;;;;5126472;27;20049;-46
2023/03/02 10:25:25;;;;;;;16.40;9.88;;;;;;;;;;5130827;27;20099;-49
2023/03/02 10:27:55;;;;;;;13.90;8.93;;;;;;;;;;5131557;27;20026;-46
2023/03/02 10:30:26;;;;;;;15.77;9.52;;;;;;;;;;5130536;27;20072;-46
2023/03/02 10:32:54;;;;;;;18.38;10.73;;;;;;;;;;5131358;27;20027;-48
2023/03/02 10:35:21;;;;;;;21.10;12.23;;;;;;;;;;5128502;27;20083;-47
2023/03/02 10:37:48;;;;;;;18.17;11.02;;;;;;;;;;5129905;27;20058;-49
2023/03/02 10:40:33;;;;;;;19.33;11.77;;;;;;;;;;5131035;27;20023;-49
2023/03/02 10:42:59;;;;;;;14.70;9.18;;;;;;;;;;5130830;27;20053;-47
2023/03/02 10:45:30;;;;;;;16.85;10.10;;;;;;;;;;5129579;27;20106;-48
2023/03/02 10:48:02;;;;;;;17.77;11.35;;;;;;;;;;5137253;27;20026;-49
2023/03/02 10:50:31;;;;;;;19.67;11.95;;;;;;;;;;5130676;27;20106;-50
2023/03/02 10:52:58;;;;;;;27.45;15.65;;;;;;;;;;5126606;27;20329;-45
2023/03/02 10:55:25;;;;;;;24.88;16.08;;;;;;;;;;5128781;27;20031;-48
2023/03/02 10:58:17;;;;;;;22.05;13.88;;;;;;;;;;5130190;27;20030;-48
2023/03/02 11:00:54;;;;;;;22.10;13.52;;;;;;;;;;5113181;27;20047;-46
2023/03/02 11:03:22;;;;;;;20.73;12.95;;;;;;;;;;5128148;27;20034;-48
2023/03/02 11:05:49;;;;;;;28.67;16.08;;;;;;;;;;5115863;27;20034;-46
2023/03/02 11:08:18;;;;;;;26.48;16.15;;;;;;;;;;5129290;27;20482;-48
2023/03/02 11:10:55;;;;;;;25.08;15.38;;;;;;;;;;5130181;27;20583;-46
2023/03/02 11:13:26;;;;;;;23.27;14.18;;;;;;;;;;5130165;27;20628;-49
2023/03/02 11:15:54;;;;;;;19.33;12.30;;;;;;;;;;5130580;27;20031;-47
2023/03/02 11:18:46;;;;;;;18.58;11.32;;;;;;;;;;5130616;27;20031;-45
2023/03/02 11:21:22;;;;;;;16.50;10.68;;;;;;;;;;5099023;27;20166;-48
2023/03/02 11:24:00;;;;;;;19.80;11.63;;;;;;;;;;5130886;27;20030;-47
2023/03/02 11:26:58;;;;;;;15.45;10.05;;;;;;;;;;5131506;27;20027;-49
2023/03/02 11:29:30;;;;;;;15.88;10.35;;;;;;;;;;5107259;27;20047;-47
2023/03/02 11:31:59;;;;;;;17.23;10.32;;;;;;;;;;5128238;27;20106;-45
2023/03/02 11:34:28;;;;;;;18.85;11.38;;;;;;;;;;5129558;27;20148;-48
2023/03/02 11:36:57;;;;;;;15.93;9.55;;;;;;;;;;5129317;27;20027;-45
2023/03/02 11:39:31;;;;;;;15.35;9.77;;;;;;;;;;5130731;27;20019;-49
2023/03/02 11:41:57;;;;;;;15.63;10.80;;;;;;;;;;5130633;27;20157;-50
2023/03/02 11:44:26;;;;;;;18.05;10.93;;;;;;;;;;5128803;27;20497;-46
2023/03/02 11:46:55;;;;;;;15.95;9.48;;;;;;;;;;5130123;27;20050;-48
2023/03/02 11:49:23;;;;;;;19.42;11.60;;;;;;;;;;5130844;27;20026;-48
2023/03/02 11:51:54;;;;;;;22.55;12.88;;;;;;;;;;5130196;27;20031;-50
2023/03/02 11:54:40;;;;;;;20.95;13.48;;;;;;;;;;5130619;27;20027;-48
2023/03/02 11:57:17;;;;;;;19.55;12.23;;;;;;;;;;5130517;27;20034;-48
2023/03/02 11:59:44;;;;;;;19.30;12.70;;;;;;;;;;5128983;27;20106;-47
2023/03/02 12:02:12;;;;;;;17.25;11.02;;;;;;;;;;5130674;27;20440;-46
2023/03/02 12:04:38;;;;;;;14.60;9.32;;;;;;;;;;5126853;27;20031;-48
2023/03/02 12:07:19;;;;;;;17.40;10.70;;;;;;;;;;5128284;27;20027;-49
2023/03/02 12:09:55;;;;;;;15.48;9.65;;;;;;;;;;5130110;27;20027;-49
2023/03/02 12:12:35;;;;;;;13.18;8.30;;;;;;;;;;5127840;27;20055;-49
2023/03/02 12:15:02;;;;;;;12.98;8.30;;;;;;;;;;5116231;27;20074;-45
2023/03/02 12:17:32;;;;;;;13.15;8.98;;;;;;;;;;5129425;27;20513;-47
2023/03/02 12:20:07;;;;;;;11.70;8.30;;;;;;;;;;5129664;27;20028;-46
2023/03/02 12:22:34;;;;;;;12.13;8.45;;;;;;;;;;5128455;27;20062;-46
2023/03/02 12:25:24;;;;;;;14.07;9.40;;;;;;;;;;5128252;27;20031;-48
2023/03/02 12:27:51;;;;;;;16.48;10.02;;;;;;;;;;5129751;27;20031;-49
2023/03/02 12:30:22;;;;;;;14.65;9.80;;;;;;;;;;5128176;27;20059;-47
2023/03/02 12:33:08;;;;;;;16.55;11.07;;;;;;;;;;5127229;27;20034;-46
2023/03/02 12:35:34;;;;;;;17.75;11.00;;;;;;;;;;5112937;27;20035;-49
2023/03/02 12:38:03;;;;;;;18.65;11.80;;;;;;;;;;5128422;27;20023;-49
2023/03/02 12:40:40;;;;;;;20.60;12.40;;;;;;;;;;5128371;27;20026;-49
2023/03/02 12:43:12;;;;;;;18.75;12.48;;;;;;;;;;5126985;27;20023;-46
2023/03/02 12:45:41;;;;;;;16.98;10.82;;;;;;;;;;5127261;27;20023;-46
2023/03/02 12:48:33;;;;;;;16.02;10.82;;;;;;;;;;5127232;27;20092;-50
2023/03/02 12:51:00;;;;;;;19.45;12.77;;;;;;;;;;5125124;27;20071;-47
2023/03/02 12:53:27;;;;;;;16.17;10.77;;;;;;;;;;5126726;27;20027;-49
2023/03/02 12:55:53;;;;;;;15.10;10.52;;;;;;;;;;5126885;27;20031;-48
2023/03/02 12:58:21;;;;;;;17.30;10.88;;;;;;;;;;5127431;27;20093;-46
2023/03/02 13:00:52;;;;;;;16.33;10.98;;;;;;;;;;5127505;27;20023;-50
2023/03/02 13:03:18;;;;;;;20.80;14.32;;;;;;;;;;5127541;27;20034;-47
2023/03/02 13:05:46;;;;;;;23.42;15.10;;;;;;;;;;5126998;27;20442;-50
2023/03/02 13:08:22;;;;;;;20.30;13.68;;;;;;;;;;5126580;27;20042;-46
2023/03/02 13:10:51;;;;;;;20.38;12.98;;;;;;;;;;5127308;27;20114;-47
2023/03/02 13:13:19;;;;;;;19.45;12.60;;;;;;;;;;5127637;27;20039;-46
2023/03/02 13:16:01;;;;;;;19.52;13.02;;;;;;;;;;5126705;27;20046;-46
2023/03/02 13:18:30;;;;;;;19.83;12.73;;;;;;;;;;5126896;27;20034;-47
2023/03/02 13:20:57;;;;;;;18.08;11.40;;;;;;;;;;5126516;27;20023;-47
2023/03/02 13:23:23;;;;;;;21.60;13.68;;;;;;;;;;5126435;27;20062;-49
2023/03/02 13:25:53;;;;;;;19.15;11.85;;;;;;;;;;5127039;27;20043;-48
2023/03/02 13:28:26;;;;;;;15.65;10.63;;;;;;;;;;5126873;27;20122;-46
2023/03/02 13:31:03;;;;;;;19.52;12.55;;;;;;;;;;5126523;27;20273;-47
2023/03/02 13:33:31;;;;;;;18.20;12.05;;;;;;;;;;5126497;27;20102;-48
2023/03/02 13:35:57;;;;;;;19.08;12.55;;;;;;;;;;5126322;27;20027;-46
2023/03/02 13:38:26;;;;;;;19.25;12.73;;;;;;;;;;5125159;27;20019;-46
2023/03/02 13:40:53;;;;;;;19.58;12.98;;;;;;;;;;5126033;27;20039;-46
2023/03/02 13:43:28;;;;;;;17.33;12.05;;;;;;;;;;5126527;27;20034;-46
2023/03/02 13:45:58;;;;;;;19.63;13.27;;;;;;;;;;5126533;27;20055;-50
2023/03/02 13:48:26;;;;;;;22.52;14.73;;;;;;;;;;5110089;27;20023;-48
2023/03/02 13:50:58;;;;;;;18.85;11.95;;;;;;;;;;5126138;27;20110;-49
2023/03/02 13:53:25;;;;;;;19.80;12.80;;;;;;;;;;5125850;27;20254;-48
2023/03/02 13:55:52;;;;;;;20.80;13.77;;;;;;;;;;5125961;27;20498;-47
2023/03/02 13:58:19;;;;;;;20.95;13.60;;;;;;;;;;5126745;27;20027;-46
2023/03/02 14:00:47;;;;;;;18.13;11.65;;;;;;;;;;5126047;27;20041;-50
2023/03/02 14:03:24;;;;;;;19.15;13.07;;;;;;;;;;5125897;27;20027;-47
2023/03/02 14:05:50;;;;;;;17.90;12.13;;;;;;;;;;5126917;27;20084;-49
2023/03/02 14:08:16;;;;;;;18.13;12.57;;;;;;;;;;5126615;27;20019;-49
2023/03/02 14:10:42;;;;;;;18.13;12.25;;;;;;;;;;5125542;28;20521;-47
2023/03/02 14:13:10;;;;;;;17.85;11.25;;;;;;;;;;5123830;28;20032;-49
2023/03/02 14:15:37;;;;;;;15.85;10.27;;;;;;;;;;5125801;28;20110;-48
2023/03/02 14:18:07;;;;;;;17.30;11.60;;;;;;;;;;5114876;28;20080;-46
2023/03/02 14:20:34;;;;;;;18.23;12.70;;;;;;;;;;5124549;27;20027;-48
2023/03/02 14:23:04;;;;;;;22.33;14.88;;;;;;;;;;5122511;28;20108;-46
2023/03/02 14:25:30;;;;;;;20.58;13.40;;;;;;;;;;5127312;28;20505;-47
2023/03/02 14:27:56;;;;;;;18.15;11.57;;;;;;;;;;5127331;28;20024;-46
2023/03/02 14:30:22;;;;;;;16.58;10.85;;;;;;;;;;5127518;28;20061;-46
2023/03/02 14:32:49;;;;;;;16.38;10.82;;;;;;;;;;5128866;27;20015;-46
2023/03/02 14:35:16;;;;;;;16.38;10.57;;;;;;;;;;5126983;28;20041;-48
2023/03/02 14:37:48;;;;;;;16.48;10.50;;;;;;;;;;5126822;28;20031;-49
2023/03/02 14:40:26;;;;;;;16.83;10.02;;;;;;;;;;5112051;28;20019;-47
2023/03/02 14:42:52;;;;;;;15.55;10.75;;;;;;;;;;5126954;28;20038;-49
2023/03/02 14:45:18;;;;;;;18.83;12.50;;;;;;;;;;5128245;28;20058;-47
2023/03/02 14:47:44;;;;;;;17.15;11.52;;;;;;;;;;5127531;28;20102;-46
2023/03/02 14:50:11;;;;;;;16.20;11.02;;;;;;;;;;5127566;28;20027;-46
2023/03/02 14:52:40;;;;;;;17.98;10.45;;;;;;;;;;5127040;28;20038;-49
2023/03/02 14:55:11;;;;;;;13.57;9.80;;;;;;;;;;5126966;28;20087;-46
2023/03/02 14:57:38;;;;;;;12.13;8.50;;;;;;;;;;5127543;27;20061;-47
2023/03/02 15:00:05;;;;;;;16.02;10.25;;;;;;;;;;5129274;27;20023;-47
2023/03/02 15:02:32;;;;;;;15.07;9.82;;;;;;;;;;5128567;27;20081;-48
2023/03/02 15:04:58;;;;;;;14.05;9.77;;;;;;;;;;5130850;27;20019;-50
2023/03/02 15:07:25;;;;;;;13.52;9.05;;;;;;;;;;5130189;27;20050;-48
2023/03/02 15:09:51;;;;;;;14.05;9.30;;;;;;;;;;5130736;27;20034;-45
2023/03/02 15:12:17;;;;;;;13.48;9.73;;;;;;;;;;5131085;27;20498;-48
2023/03/02 15:14:43;;;;;;;13.10;9.40;;;;;;;;;;5129015;27;20525;-49
2023/03/02 15:17:09;;;;;;;15.38;9.68;;;;;;;;;;5131029;27;20031;-48
2023/03/02 15:19:35;;;;;;;15.15;10.00;;;;;;;;;;5130356;27;20034;-47
2023/03/02 15:22:01;;;;;;;15.27;10.57;;;;;;;;;;5130726;27;20425;-50
2023/03/02 15:24:27;;;;;;;15.73;10.48;;;;;;;;;;5130711;27;20024;-46
2023/03/02 15:26:54;;;;;;;16.35;11.10;;;;;;;;;;5130702;27;20080;-49
2023/03/02 15:29:20;;;;;;;16.50;11.15;;;;;;;;;;5131445;27;20019;-46
2023/03/02 15:31:46;;;;;;;17.13;11.82;;;;;;;;;;5130520;27;20027;-48
2023/03/02 15:34:12;;;;;;;17.02;11.48;;;;;;;;;;5130603;27;20067;-47
2023/03/02 15:36:38;;;;;;;18.27;12.75;;;;;;;;;;5130142;27;20037;-47
2023/03/02 15:39:08;;;;;;;19.40;12.13;;;;;;;;;;5129319;27;20516;-45
2023/03/02 15:41:34;;;;;;;16.50;11.02;;;;;;;;;;5129893;27;20031;-49
2023/03/02 15:44:00;;;;;;;17.27;11.30;;;;;;;;;;5130332;27;20027;-47
2023/03/02 15:46:27;;;;;;;15.27;10.85;;;;;;;;;;5127248;27;20193;-46
2023/03/02 15:48:54;;;;;;;17.58;10.82;;;;;;;;;;5127346;27;20023;-49
2023/03/02 15:51:20;;;;;;;15.00;10.65;;;;;;;;;;5128723;27;20031;-47
2023/03/02 15:53:47;;;;;;;16.02;11.10;;;;;;;;;;5128871;27;20141;-47
2023/03/02 15:56:14;;;;;;;15.18;10.20;;;;;;;;;;5127846;27;20029;-48
2023/03/02 15:58:44;;;;;;;14.30;10.32;;;;;;;;;;5128666;27;20413;-49
2023/03/02 16:01:11;;;;;;;12.35;8.13;;;;;;;;;;5128258;27;20027;-48
2023/03/02 16:03:37;;;;;;;15.02;10.57;;;;;;;;;;5129807;27;20034;-48
2023/03/02 16:06:03;;;;;;;12.95;10.05;;;;;;;;;;5129813;27;20031;-50
2023/03/02 16:08:30;;;;;;;12.02;9.35;;;;;;;;;;5128447;27;20510;-49
2023/03/02 16:11:03;;;;;;;14.15;10.45;;;;;;;;;;5127116;27;20027;-47
2023/03/02 16:13:29;;;;;;;15.32;10.15;;;;;;;;;;5128119;27;20023;-47
2023/03/02 16:15:55;;;;;;;15.73;10.48;;;;;;;;;;5128583;27;20269;-49
2023/03/02 16:18:22;;;;;;;15.50;10.57;;;;;;;;;;5127977;27;20118;-49
2023/03/02 16:20:49;;;;;;;14.70;10.23;;;;;;;;;;5128576;27;20474;-47
2023/03/02 16:23:15;;;;;;;14.20;10.02;;;;;;;;;;5127759;27;20023;-49
2023/03/02 16:25:48;;;;;;;13.35;9.70;;;;;;;;;;5128368;27;21088;-47
2023/03/02 16:28:19;;;;;;;14.63;10.85;;;;;;;;;;5128052;27;20196;-46
2023/03/02 16:30:45;;;;;;;14.82;10.38;;;;;;;;;;5128017;27;20023;-47
2023/03/02 16:33:13;;;;;;;11.88;8.77;;;;;;;;;;5127607;27;20085;-46
2023/03/02 16:35:39;;;;;;;15.05;10.98;;;;;;;;;;5128232;27;20027;-48
2023/03/02 16:38:06;;;;;;;13.07;9.57;;;;;;;;;;5127422;27;20011;-49
2023/03/02 16:40:32;;;;;;;14.05;9.50;;;;;;;;;;5127612;27;20131;-47
2023/03/02 16:42:58;;;;;;;13.25;9.77;;;;;;;;;;5127557;27;20628;-45
2023/03/02 16:45:25;;;;;;;15.35;10.38;;;;;;;;;;5127780;27;20023;-47
2023/03/02 16:47:51;;;;;;;13.63;9.90;;;;;;;;;;5127681;27;20031;-47
2023/03/02 16:50:18;;;;;;;14.95;10.43;;;;;;;;;;5127822;27;20023;-48
2023/03/02 16:52:44;;;;;;;17.98;11.60;;;;;;;;;;5127303;27;20497;-49
2023/03/02 16:55:11;;;;;;;14.48;10.32;;;;;;;;;;5127287;27;20034;-47
2023/03/02 16:57:37;;;;;;;15.18;10.13;;;;;;;;;;5127422;27;20395;-50
2023/03/02 17:00:05;;;;;;;15.00;10.65;;;;;;;;;;5127174;27;20023;-49
2023/03/02 17:02:32;;;;;;;15.48;10.57;;;;;;;;;;5127146;27;20035;-48
2023/03/02 17:04:57;;;;;;;17.05;11.77;;;;;;;;;;5126764;27;20030;-47
2023/03/02 17:07:23;;;;;;;14.48;10.32;;;;;;;;;;5127332;27;20027;-50
2023/03/02 17:09:49;;;;;;;16.95;11.90;;;;;;;;;;5127366;27;20072;-48
2023/03/02 17:12:15;;;;;;;14.57;10.75;;;;;;;;;;5127065;27;20038;-47
2023/03/02 17:14:41;;;;;;;16.75;11.57;;;;;;;;;;5126760;27;20498;-49
2023/03/02 17:17:07;;;;;;;17.15;11.63;;;;;;;;;;5126891;27;20026;-49
2023/03/02 17:19:33;;;;;;;18.35;11.95;;;;;;;;;;5126633;27;20031;-47
2023/03/02 17:22:00;;;;;;;17.75;11.70;;;;;;;;;;5126157;27;20390;-47
2023/03/02 17:24:27;;;;;;;18.23;11.70;;;;;;;;;;5126813;27;20106;-49
2023/03/02 17:26:53;;;;;;;18.25;11.85;;;;;;;;;;5127050;27;20011;-50
2023/03/02 17:29:19;;;;;;;18.73;12.20;;;;;;;;;;5126237;27;20046;-45
2023/03/02 17:31:45;;;;;;;20.52;12.93;;;;;;;;;;5126637;27;20050;-46
2023/03/02 17:34:11;;;;;;;19.08;12.57;;;;;;;;;;5126447;27;20550;-49
2023/03/02 17:36:37;;;;;;;20.65;13.40;;;;;;;;;;5126940;27;20134;-46
2023/03/02 17:39:04;;;;;;;21.05;13.18;;;;;;;;;;5126557;27;20027;-47
2023/03/02 17:41:31;;;;;;;22.77;14.68;;;;;;;;;;5126679;27;20019;-47
2023/03/02 17:43:57;;;;;;;19.73;12.82;;;;;;;;;;5126385;27;20130;-49
2023/03/02 17:46:24;;;;;;;19.52;13.77;;;;;;;;;;5127061;27;20160;-48
2023/03/02 17:48:51;;;;;;;19.88;12.40;;;;;;;;;;5126928;27;20098;-47
2023/03/02 17:51:18;;;;;;;20.48;13.32;;;;;;;;;;5127121;27;20179;-50
2023/03/02 17:53:45;;;;;;;23.45;13.32;;;;;;;;;;5125977;27;20075;-49
2023/03/02 17:56:13;;;;;;;21.52;13.77;;;;;;;;;;5126444;27;20106;-46
2023/03/02 17:58:39;;;;;;;20.10;13.10;;;;;;;;;;5126773;27;20247;-49
2023/03/02 18:01:06;;;;;;;21.42;12.40;;;;;;;;;;5126610;27;20019;-47
2023/03/02 18:03:32;;;;;;;17.95;12.07;;;;;;;;;;5126018;27;20027;-48
2023/03/02 18:05:59;;;;;;;19.48;12.50;;;;;;;;;;5126237;27;20027;-49
2023/03/02 18:08:25;;;;;;;18.92;11.88;;;;;;;;;;5125975;27;20030;-46
2023/03/02 18:10:51;;;;;;;19.08;11.63;;;;;;;;;;5126759;28;20031;-45
2023/03/02 18:13:17;;;;;;;17.98;10.57;;;;;;;;;;5126663;27;20549;-45
2023/03/02 18:15:44;;;;;;;18.35;10.60;;;;;;;;;;5125507;27;20553;-45
2023/03/02 18:18:11;;;;;;;15.80;10.30;;;;;;;;;;5126186;27;20050;-46
2023/03/02 18:20:37;;;;;;;18.05;10.65;;;;;;;;;;5125952;28;20030;-48
2023/03/02 18:23:04;;;;;;;17.35;10.75;;;;;;;;;;5125727;28;20015;-48
2023/03/02 18:25:31;;;;;;;19.75;12.10;;;;;;;;;;5126040;28;20075;-49
2023/03/02 18:27:57;;;;;;;17.77;11.20;;;;;;;;;;5125926;28;20482;-48
2023/03/02 18:30:23;;;;;;;18.48;11.13;;;;;;;;;;5125748;27;20023;-49
2023/03/02 18:32:49;;;;;;;19.42;11.70;;;;;;;;;;5127342;27;20031;-49
2023/03/02 18:35:15;;;;;;;18.55;10.93;;;;;;;;;;5130207;27;20481;-46
2023/03/02 18:37:42;;;;;;;17.73;10.93;;;;;;;;;;5129798;27;20451;-46
2023/03/02 18:40:09;;;;;;;18.70;11.38;;;;;;;;;;5129911;27;20023;-47
2023/03/02 18:42:35;;;;;;;19.70;11.30;;;;;;;;;;5129462;27;20102;-49
2023/03/02 18:45:02;;;;;;;19.27;11.20;;;;;;;;;;5129152;27;20027;-47
2023/03/02 18:47:28;;;;;;;17.83;11.20;;;;;;;;;;5112569;27;20161;-45
2023/03/02 18:49:56;;;;;;;17.77;11.32;;;;;;;;;;5130183;27;20030;-46
2023/03/02 18:52:23;;;;;;;17.88;11.38;;;;;;;;;;5129433;27;20037;-49
2023/03/02 18:54:49;;;;;;;18.08;11.50;;;;;;;;;;5130181;27;20031;-46
2023/03/02 18:57:15;;;;;;;18.35;11.73;;;;;;;;;;5129903;27;20059;-48
2023/03/02 18:59:41;;;;;;;19.35;12.25;;;;;;;;;;5129313;27;20062;-48
2023/03/02 19:02:12;;;;;;;23.30;14.50;;;;;;;;;;5129148;27;20067;-49
2023/03/02 19:04:38;;;;;;;21.00;13.00;;;;;;;;;;5129405;27;20024;-49
2023/03/02 19:07:05;;;;;;;19.75;12.15;;;;;;;;;;5129021;27;20041;-48
2023/03/02 19:09:32;;;;;;;20.85;12.35;;;;;;;;;;5129625;27;20019;-47
2023/03/02 19:11:58;;;;;;;20.73;13.25;;;;;;;;;;5128869;27;20027;-47
2023/03/02 19:14:26;;;;;;;18.33;12.23;;;;;;;;;;5129081;27;20513;-47
2023/03/02 19:16:51;;;;;;;20.77;12.82;;;;;;;;;;5129523;27;20031;-47
2023/03/02 19:19:18;;;;;;;18.83;11.85;;;;;;;;;;5130306;27;20542;-46
2023/03/02 19:21:43;;;;;;;19.60;11.63;;;;;;;;;;5128743;27;20031;-47
2023/03/02 19:24:09;;;;;;;17.52;11.80;;;;;;;;;;5129486;27;20098;-47
2023/03/02 19:26:36;;;;;;;17.52;10.93;;;;;;;;;;5128862;27;20712;-49
2023/03/02 19:29:02;;;;;;;21.30;12.80;;;;;;;;;;5129032;27;20562;-47
2023/03/02 19:31:31;;;;;;;22.02;13.48;;;;;;;;;;5128519;27;20035;-49
2023/03/02 19:33:57;;;;;;;19.92;12.75;;;;;;;;;;5128143;27;20129;-49